Time;durP1;ratioP1;P1;durP2;ratioP2;P2;SDS_P1;SDS_P2;PMS_P1;PMS_P2;Temp;Humidity;BMP_temperature;BMP_pressure;BME280_temperature;BME280_humidity;BME280_pressure;Samples;Min_cycle;Max_cycle;Signal;HPM_P1;HPM_P2
2022/04/04 00:00:41;;;;;;;4.60;3.67;;;;;;;4.77;72.13;100162.53;4924351;29;20027;-90
2022/04/04 00:03:07;;;;;;;4.78;3.60;;;;;;;4.81;72.20;100160.53;4926472;29;20050;-90
2022/04/04 00:05:33;;;;;;;5.18;3.70;;;;;;;4.80;72.53;100151.75;4925160;29;20170;-90
2022/04/04 00:07:59;;;;;;;6.72;3.90;;;;;;;4.72;72.29;100154.84;4956859;28;20435;-90
2022/04/04 00:10:24;;;;;;;4.47;4.03;;;;;;;4.71;72.31;100150.50;4924285;29;20042;-90
2022/04/04 00:12:49;;;;;;;4.97;3.90;;;;;;;4.68;72.17;100147.19;4924649;29;20038;-90
2022/04/04 00:15:15;;;;;;;4.38;3.72;;;;;;;4.63;72.38;100139.53;4922846;29;20051;-91
2022/04/04 00:17:40;;;;;;;5.07;3.90;;;;;;;4.61;72.44;100138.78;4923843;29;20492;-90
2022/04/04 00:20:07;;;;;;;4.03;3.65;;;;;;;4.61;72.36;100141.41;4924052;29;20373;-90
2022/04/04 00:22:33;;;;;;;5.47;3.83;;;;;;;4.58;72.74;100138.97;4925488;29;20045;-90
2022/04/04 00:24:58;;;;;;;5.10;4.35;;;;;;;4.58;72.30;100130.16;4940021;29;20031;-91
2022/04/04 00:27:24;;;;;;;5.65;4.00;;;;;;;4.57;72.63;100126.69;4924662;29;20412;-90
2022/04/04 00:29:49;;;;;;;5.15;4.15;;;;;;;4.53;72.75;100126.97;4939421;29;20055;-91
2022/04/04 00:32:14;;;;;;;5.80;4.15;;;;;;;4.51;72.69;100124.41;4941034;29;20023;-90
2022/04/04 00:34:40;;;;;;;4.50;4.10;;;;;;;4.51;72.67;100124.41;4923088;29;20046;-90
2022/04/04 00:37:05;;;;;;;5.22;4.38;;;;;;;4.55;72.88;100120.63;4924884;29;20031;-90
2022/04/04 00:39:31;;;;;;;5.15;4.50;;;;;;;4.54;72.62;100115.41;4938068;29;20039;-90
2022/04/04 00:41:56;;;;;;;5.93;4.57;;;;;;;4.51;72.46;100123.56;4940331;29;20086;-90
2022/04/04 00:44:22;;;;;;;4.78;4.28;;;;;;;4.54;72.90;100112.78;4923476;29;20042;-90
2022/04/04 00:46:47;;;;;;;5.80;4.65;;;;;;;4.55;72.88;100117.97;4955809;28;20028;-90
2022/04/04 00:49:13;;;;;;;5.60;4.35;;;;;;;4.48;72.58;100121.94;4924035;29;20031;-91
2022/04/04 00:51:38;;;;;;;5.57;4.32;;;;;;;4.48;73.04;100119.31;4923395;29;20042;-90
2022/04/04 00:54:04;;;;;;;8.05;4.43;;;;;;;4.50;73.27;100114.75;4940117;29;20055;-90
2022/04/04 00:56:39;;;;;;;6.00;4.38;;;;;;;4.50;73.00;100116.56;4939810;29;20110;-90
2022/04/04 00:59:05;;;;;;;5.15;4.65;;;;;;;4.51;72.50;100102.38;4924862;29;20055;-90
2022/04/04 01:01:32;;;;;;;5.22;4.55;;;;;;;4.52;72.55;100107.56;4944738;28;20058;-90
2022/04/04 01:03:58;;;;;;;5.38;4.30;;;;;;;4.53;72.65;100095.19;4938934;29;20027;-90
2022/04/04 01:06:23;;;;;;;7.28;4.80;;;;;;;4.53;72.41;100090.75;4938601;29;20046;-90
2022/04/04 01:08:49;;;;;;;7.20;4.70;;;;;;;4.50;72.52;100096.22;4953708;29;20078;-90
2022/04/04 01:11:14;;;;;;;6.72;5.05;;;;;;;4.55;72.51;100085.34;4946596;29;20257;-90
2022/04/04 01:13:47;;;;;;;6.63;5.13;;;;;;;4.52;72.41;100089.03;4948657;28;20035;-90
2022/04/04 01:16:12;;;;;;;5.95;5.10;;;;;;;4.53;71.91;100090.75;4965048;28;20118;-90
2022/04/04 01:18:38;;;;;;;6.32;5.00;;;;;;;4.48;72.43;100079.59;4946805;29;20047;-90
2022/04/04 01:21:03;;;;;;;8.02;5.35;;;;;;;4.43;72.35;100079.03;4983636;28;20023;-90
2022/04/04 01:23:39;;;;;;;8.70;5.50;;;;;;;4.39;72.03;100072.22;4945937;29;20031;-90
2022/04/04 01:26:04;;;;;;;6.22;5.25;;;;;;;4.34;72.36;100069.88;4967803;28;20055;-90
2022/04/04 01:28:29;;;;;;;6.00;5.40;;;;;;;4.41;72.89;100059.75;4937393;29;20024;-90
2022/04/04 01:30:55;;;;;;;6.47;5.45;;;;;;;4.40;72.81;100061.53;4944470;29;20106;-90
2022/04/04 01:33:23;;;;;;;6.30;5.70;;;;;;;4.35;72.95;100055.69;4928342;29;20054;-90
2022/04/04 01:35:48;;;;;;;7.25;5.60;;;;;;;4.36;72.84;100054.75;4927402;29;20027;-90
2022/04/04 01:38:13;;;;;;;6.88;5.53;;;;;;;4.43;72.65;100060.50;4927779;29;20118;-90
2022/04/04 01:40:39;;;;;;;8.18;6.20;;;;;;;4.46;72.82;100049.72;4942636;29;20130;-90
2022/04/04 01:43:04;;;;;;;6.35;5.75;;;;;;;4.51;72.33;100050.28;4926978;29;20035;-90
2022/04/04 01:48:14;;;;;;;6.45;5.85;;;;;;;4.42;72.67;100041.13;4943749;29;20050;-90
2022/04/04 01:50:39;;;;;;;7.03;5.85;;;;;;;4.40;72.13;100044.81;4926768;29;20063;-90
2022/04/04 01:55:49;;;;;;;6.68;5.90;;;;;;;4.40;72.47;100037.72;4943681;29;20077;-90
2022/04/04 01:58:14;;;;;;;7.50;5.95;;;;;;;4.43;72.59;100034.88;4927067;29;20059;-90
2022/04/04 02:00:40;;;;;;;7.68;6.07;;;;;;;4.44;72.26;100035.72;4925702;29;20031;-90
2022/04/04 02:03:05;;;;;;;6.72;6.00;;;;;;;4.46;72.23;100030.34;4927832;29;20035;-90
2022/04/04 02:05:31;;;;;;;7.97;6.50;;;;;;;4.48;72.02;100029.28;4941866;29;20082;-90
2022/04/04 02:07:56;;;;;;;7.82;6.60;;;;;;;4.49;72.10;100036.28;4927382;29;20062;-90
2022/04/04 02:10:22;;;;;;;9.77;6.50;;;;;;;4.52;72.04;100033.44;4925676;29;20079;-90
2022/04/04 02:12:47;;;;;;;6.95;6.35;;;;;;;4.44;71.35;100025.13;4941779;29;20825;-90
2022/04/04 02:15:13;;;;;;;7.85;6.38;;;;;;;4.35;71.69;100025.72;4942450;29;20032;-90
2022/04/04 02:17:38;;;;;;;7.60;6.18;;;;;;;4.36;71.57;100022.13;4925381;29;21081;-90
2022/04/04 02:20:04;;;;;;;7.55;6.65;;;;;;;4.38;71.53;100014.94;4926347;29;20525;-90
2022/04/04 02:22:30;;;;;;;7.68;6.43;;;;;;;4.39;72.00;100014.84;4959194;28;20357;-90
2022/04/04 02:24:55;;;;;;;8.52;6.90;;;;;;;4.39;71.66;100008.69;4926083;29;20389;-90
2022/04/04 02:27:20;;;;;;;7.13;6.30;;;;;;;4.40;71.45;100003.31;4941021;29;20035;-89
2022/04/04 02:29:46;;;;;;;7.28;6.57;;;;;;;4.39;71.38;100006.06;4926098;29;20039;-90
2022/04/04 02:32:11;;;;;;;7.45;6.68;;;;;;;4.40;71.15;99991.88;4940944;29;20068;-90
2022/04/04 02:34:36;;;;;;;7.40;6.70;;;;;;;4.35;71.20;99997.47;4926926;29;20357;-90
2022/04/04 02:37:02;;;;;;;8.63;6.85;;;;;;;4.31;70.98;99995.94;4925285;29;20032;-90
2022/04/04 02:39:27;;;;;;;7.32;6.60;;;;;;;4.31;70.79;99997.75;4926659;29;20032;-90
2022/04/04 02:41:55;;;;;;;8.50;6.90;;;;;;;4.29;71.17;99989.06;4924758;29;20035;-90
2022/04/04 02:44:20;;;;;;;8.60;6.82;;;;;;;4.30;71.10;99985.47;4941646;28;20042;-90
2022/04/04 02:46:45;;;;;;;7.75;6.60;;;;;;;4.25;70.97;99980.44;4941251;29;20039;-90
2022/04/04 02:49:11;;;;;;;9.77;6.60;;;;;;;4.21;71.17;99975.44;4925043;29;20089;-90
2022/04/04 02:51:36;;;;;;;7.72;6.93;;;;;;;4.23;71.51;99973.53;4925944;29;20035;-90
2022/04/04 02:54:02;;;;;;;7.95;6.80;;;;;;;4.22;71.20;99970.03;4924594;29;20027;-90
2022/04/04 02:56:30;;;;;;;9.55;7.20;;;;;;;4.23;70.68;99960.31;4925989;29;20031;-90
2022/04/04 02:58:57;;;;;;;9.88;7.03;;;;;;;4.25;71.28;99953.97;4925074;29;20115;-90
2022/04/04 03:01:23;;;;;;;8.30;6.72;;;;;;;4.23;70.75;99955.00;4956290;28;20253;-90
2022/04/04 03:03:48;;;;;;;8.43;6.80;;;;;;;4.28;71.38;99951.16;4956988;28;20023;-90
2022/04/04 03:06:14;;;;;;;9.32;7.43;;;;;;;4.27;71.00;99951.25;4925188;29;20199;-90
2022/04/04 03:08:40;;;;;;;9.77;7.07;;;;;;;4.33;71.32;99943.75;4924864;29;20042;-90
2022/04/04 03:11:05;;;;;;;10.85;7.22;;;;;;;4.31;71.06;99936.88;4941338;28;20369;-90
2022/04/04 03:13:30;;;;;;;9.95;7.20;;;;;;;4.36;71.04;99934.78;4925356;29;20095;-90
2022/04/04 03:15:56;;;;;;;10.15;7.20;;;;;;;4.31;70.82;99927.13;4956169;28;20075;-90
2022/04/04 03:18:21;;;;;;;11.18;7.30;;;;;;;4.36;71.07;99927.69;4925139;29;20167;-90
2022/04/04 03:20:47;;;;;;;10.77;7.18;;;;;;;4.31;71.10;99924.50;4923240;29;20055;-90
2022/04/04 03:23:12;;;;;;;10.10;7.38;;;;;;;4.32;70.93;99920.88;4924357;29;20035;-90
2022/04/04 03:25:38;;;;;;;10.77;7.43;;;;;;;4.27;70.85;99924.78;4925181;29;20031;-90
2022/04/04 03:28:03;;;;;;;10.55;7.50;;;;;;;4.32;70.73;99909.44;4924592;29;20039;-90
2022/04/04 03:30:29;;;;;;;10.68;7.22;;;;;;;4.17;70.75;99913.91;4923510;29;20027;-90
2022/04/04 03:32:57;;;;;;;11.23;7.30;;;;;;;4.18;70.95;99909.47;4923928;29;20065;-90
2022/04/04 03:35:23;;;;;;;12.07;7.40;;;;;;;4.21;70.87;99906.63;4923409;29;20070;-90
2022/04/04 03:37:53;;;;;;;9.65;6.97;;;;;;;4.16;70.52;99901.63;4939377;29;20495;-90
2022/04/04 03:40:19;;;;;;;9.23;6.63;;;;;;;4.21;70.33;99894.25;4908272;29;20035;-90
2022/04/04 03:42:45;;;;;;;8.15;6.43;;;;;;;4.19;70.80;99890.00;4924615;29;20037;-90
2022/04/04 03:45:12;;;;;;;11.00;6.80;;;;;;;4.25;70.91;99879.00;4908634;29;20047;-90
2022/04/04 03:47:38;;;;;;;7.05;6.35;;;;;;;4.25;70.93;99877.22;4940287;29;20110;-90
2022/04/04 03:50:05;;;;;;;7.90;6.30;;;;;;;4.25;70.58;99879.00;4909917;29;20035;-90
2022/04/04 03:52:30;;;;;;;8.10;6.18;;;;;;;4.24;70.49;99880.81;4908771;29;20188;-90
2022/04/04 03:54:56;;;;;;;9.38;6.38;;;;;;;4.24;70.54;99870.22;4909994;29;20160;-90
2022/04/04 03:57:21;;;;;;;7.50;6.15;;;;;;;4.28;70.76;99866.47;4922789;29;20402;-90
2022/04/04 03:59:46;;;;;;;7.38;5.60;;;;;;;4.28;70.76;99871.75;4909225;29;20082;-90
2022/04/04 04:02:12;;;;;;;8.32;5.85;;;;;;;4.31;70.69;99853.03;4910350;29;20051;-90
2022/04/04 04:04:38;;;;;;;7.15;6.10;;;;;;;4.31;70.75;99849.53;4925622;29;20027;-90
2022/04/04 04:07:05;;;;;;;8.30;6.03;;;;;;;4.27;70.56;99856.81;4909222;29;20041;-90
2022/04/04 04:09:30;;;;;;;7.93;5.80;;;;;;;4.26;70.39;99851.63;4923765;29;20114;-90
2022/04/04 04:11:56;;;;;;;7.53;5.82;;;;;;;4.37;70.91;99844.69;4925011;29;20114;-90
2022/04/04 04:14:22;;;;;;;7.07;5.85;;;;;;;4.28;70.66;99840.00;4907651;29;20071;-90
2022/04/04 04:16:47;;;;;;;8.82;6.05;;;;;;;4.25;70.16;99841.97;4915206;29;20052;-90
2022/04/04 04:20:19;;;;;;;8.38;5.45;;;;;;;4.28;70.75;99841.78;4923809;29;20422;-90
2022/04/04 04:21:58;;;;;;;7.03;5.47;;;;;;;4.24;70.19;99834.97;4939141;29;20453;-91
2022/04/04 04:24:23;;;;;;;6.30;5.68;;;;;;;4.23;70.59;99831.47;4924968;29;20027;-90
2022/04/04 04:26:49;;;;;;;7.07;5.40;;;;;;;4.16;70.22;99829.34;4922831;29;20043;-90
2022/04/04 04:29:14;;;;;;;7.22;5.57;;;;;;;4.20;70.49;99822.91;4956327;28;20036;-90
2022/04/04 04:31:40;;;;;;;7.10;5.70;;;;;;;4.22;70.63;99819.19;4921911;29;20035;-90
2022/04/04 04:34:05;;;;;;;7.18;5.40;;;;;;;4.24;70.21;99811.16;4925413;29;20449;-90
2022/04/04 04:36:30;;;;;;;7.50;5.35;;;;;;;4.26;70.12;99807.50;4927981;29;20582;-90
2022/04/04 04:38:56;;;;;;;6.78;5.35;;;;;;;4.36;70.45;99808.56;4928443;29;20424;-90
2022/04/04 04:41:22;;;;;;;8.45;5.45;;;;;;;4.43;70.61;99804.56;4927863;29;20031;-90
2022/04/04 04:43:47;;;;;;;7.03;5.00;;;;;;;4.38;70.12;99796.06;4942368;28;20031;-90
2022/04/04 04:46:12;;;;;;;7.05;4.95;;;;;;;4.32;70.14;99788.56;4927357;29;21014;-90
2022/04/04 04:48:38;;;;;;;6.70;4.90;;;;;;;4.31;70.02;99793.94;4926618;29;20047;-90
2022/04/04 04:51:03;;;;;;;7.30;5.00;;;;;;;4.35;70.33;99785.69;4926922;29;20122;-91
2022/04/04 04:53:29;;;;;;;8.50;4.75;;;;;;;4.37;70.17;99783.78;4941435;29;20073;-90
2022/04/04 04:55:54;;;;;;;5.55;4.53;;;;;;;4.33;69.99;99778.81;4927902;29;20111;-90
2022/04/04 04:58:20;;;;;;;6.85;4.22;;;;;;;4.30;70.01;99776.38;4943235;29;20074;-90
2022/04/04 05:00:46;;;;;;;6.38;4.60;;;;;;;4.52;70.56;99778.41;4942775;28;20032;-90
2022/04/04 05:03:26;;;;;;;5.25;4.53;;;;;;;4.43;69.68;99767.50;4927700;29;20576;-90
2022/04/04 05:05:53;;;;;;;5.40;4.38;;;;;;;4.33;70.06;99763.78;4929253;29;20035;-90
2022/04/04 05:08:18;;;;;;;5.65;4.45;;;;;;;4.37;69.72;99765.25;4927996;29;20031;-90
2022/04/04 05:10:47;;;;;;;7.07;4.28;;;;;;;4.28;69.63;99759.75;4925638;29;20468;-90
2022/04/04 05:13:13;;;;;;;6.47;4.80;;;;;;;4.28;69.83;99762.41;4927654;29;20525;-90
2022/04/04 05:15:39;;;;;;;5.63;4.40;;;;;;;4.35;70.46;99758.38;4942786;29;20122;-91
2022/04/04 05:18:04;;;;;;;6.10;4.38;;;;;;;4.40;70.12;99756.28;4923823;29;20525;-90
2022/04/04 05:20:29;;;;;;;5.20;4.15;;;;;;;4.37;70.15;99754.69;4926323;29;20041;-90
2022/04/04 05:22:57;;;;;;;5.35;4.07;;;;;;;4.33;69.92;99758.47;4925932;29;20034;-90
2022/04/04 05:25:23;;;;;;;4.55;3.95;;;;;;;4.30;70.03;99755.19;4911114;29;20031;-90
2022/04/04 05:27:50;;;;;;;5.75;4.50;;;;;;;4.30;69.88;99755.19;4910707;29;20063;-90
2022/04/04 05:30:16;;;;;;;7.15;4.53;;;;;;;4.32;70.08;99753.28;4926961;29;20032;-90
2022/04/04 05:32:41;;;;;;;7.35;4.32;;;;;;;4.35;70.40;99743.34;4926610;29;20050;-90
2022/04/04 05:35:07;;;;;;;6.10;4.53;;;;;;;4.33;70.19;99742.59;4926731;29;20346;-90
2022/04/04 05:37:33;;;;;;;6.00;4.72;;;;;;;4.33;70.26;99749.69;4924983;29;20067;-90
2022/04/04 05:39:58;;;;;;;5.68;4.55;;;;;;;4.36;70.54;99737.09;4902340;29;21188;-90
2022/04/04 05:42:24;;;;;;;6.22;4.70;;;;;;;4.33;70.80;99745.25;4910935;29;20038;-90
2022/04/04 05:44:49;;;;;;;8.27;4.30;;;;;;;4.35;70.30;99739.84;4926111;29;20119;-90
2022/04/04 05:47:17;;;;;;;5.28;4.70;;;;;;;4.29;70.83;99742.91;4911046;29;20046;-90
2022/04/04 05:49:48;;;;;;;5.80;4.60;;;;;;;4.26;70.68;99732.53;4909700;29;20098;-90
2022/04/04 05:52:15;;;;;;;5.53;4.30;;;;;;;4.25;70.81;99734.31;4941451;29;20042;-90
2022/04/04 05:54:54;;;;;;;5.22;4.60;;;;;;;4.24;70.75;99729.97;4925216;29;20034;-90
2022/04/04 05:57:22;;;;;;;;;;;;;;;4.28;70.84;99728.84;4933646;29;20110;-90
2022/04/04 05:59:47;;;;;;;4.85;4.20;;;;;;;4.24;70.80;99726.47;4923435;29;19957;-90
2022/04/04 06:02:13;;;;;;;6.07;4.70;;;;;;;4.20;71.21;99719.69;4925058;29;20468;-91
2022/04/04 06:04:38;;;;;;;5.72;4.47;;;;;;;4.19;71.09;99710.06;4924843;29;20386;-91
2022/04/04 06:07:04;;;;;;;5.40;4.63;;;;;;;4.22;70.70;99701.91;4910164;29;20062;-91
2022/04/04 06:09:29;;;;;;;5.97;4.68;;;;;;;4.26;70.68;99706.06;4915649;29;20524;-91
2022/04/04 06:11:55;;;;;;;6.25;4.70;;;;;;;4.26;70.74;99703.44;4925089;29;20031;-91
2022/04/04 06:14:20;;;;;;;6.05;4.28;;;;;;;4.25;70.64;99697.25;4925092;29;20023;-91
2022/04/04 06:16:46;;;;;;;5.53;4.70;;;;;;;4.19;70.20;99699.47;4914572;29;20067;-91
2022/04/04 06:19:11;;;;;;;6.50;4.47;;;;;;;4.21;70.29;99692.28;4925997;29;20031;-91
2022/04/04 06:21:36;;;;;;;6.28;4.82;;;;;;;4.23;70.58;99685.09;4925352;29;20039;-91
2022/04/04 06:24:02;;;;;;;5.90;4.10;;;;;;;4.21;70.60;99673.75;4926442;29;20031;-91
2022/04/04 06:26:30;;;;;;;5.90;4.47;;;;;;;4.21;70.77;99682.53;4925944;29;20043;-91
2022/04/04 06:28:56;;;;;;;5.55;4.63;;;;;;;4.28;70.68;99662.69;4927515;29;20435;-91
2022/04/04 06:31:21;;;;;;;5.22;4.43;;;;;;;4.30;70.67;99658.13;4925379;29;20127;-91
2022/04/04 06:33:47;;;;;;;6.10;4.35;;;;;;;4.34;70.86;99664.06;4927243;29;20192;-91
2022/04/04 06:36:12;;;;;;;6.00;4.25;;;;;;;4.30;70.44;99649.34;4925517;29;20027;-91
2022/04/04 06:38:38;;;;;;;5.03;4.15;;;;;;;4.30;70.80;99644.03;4922947;29;20449;-91
2022/04/04 06:41:04;;;;;;;5.22;4.35;;;;;;;4.42;70.57;99653.78;4925805;29;20428;-91
2022/04/04 06:43:30;;;;;;;5.53;4.40;;;;;;;4.47;70.89;99643.72;4924889;29;20042;-91
2022/04/04 06:45:55;;;;;;;5.30;4.20;;;;;;;4.43;69.87;99644.88;4924718;29;20039;-91
2022/04/04 06:48:22;;;;;;;6.25;4.20;;;;;;;4.50;70.25;99647.94;4927321;29;20164;-91
2022/04/04 06:50:47;;;;;;;5.05;4.05;;;;;;;4.53;69.83;99623.91;4940037;29;20035;-91
2022/04/04 06:53:13;;;;;;;4.78;4.00;;;;;;;4.46;69.49;99625.28;4924842;29;21008;-91
2022/04/04 06:55:48;;;;;;;6.03;3.90;;;;;;;4.46;69.81;99620.84;4923245;29;20035;-91
2022/04/04 06:58:13;;;;;;;5.97;4.05;;;;;;;4.56;69.37;99626.31;4938695;28;20934;-91
2022/04/04 07:00:39;;;;;;;4.47;3.60;;;;;;;4.55;69.61;99619.34;4923805;29;20107;-91
2022/04/04 07:03:05;;;;;;;6.38;3.80;;;;;;;4.54;69.32;99597.31;4924272;29;20035;-91
2022/04/04 07:05:31;;;;;;;8.80;3.97;;;;;;;4.66;69.72;99596.44;4924318;29;20031;-91
2022/04/04 07:07:56;;;;;;;4.82;3.60;;;;;;;4.67;69.29;99618.47;4924761;29;20103;-91
2022/04/04 07:10:22;;;;;;;4.47;3.40;;;;;;;4.68;68.68;99594.53;4925583;29;20074;-91
2022/04/04 07:12:47;;;;;;;4.15;3.45;;;;;;;4.66;68.49;99596.44;4924385;29;20035;-91
2022/04/04 07:15:13;;;;;;;5.05;3.90;;;;;;;4.60;68.20;99582.78;4924911;29;20110;-91
2022/04/04 07:17:39;;;;;;;4.65;3.50;;;;;;;4.66;68.31;99582.34;4923293;29;20545;-90
2022/04/04 07:20:06;;;;;;;4.35;3.28;;;;;;;4.68;68.46;99581.28;4924959;29;20106;-91
2022/04/04 07:22:38;;;;;;;4.55;3.40;;;;;;;4.69;68.53;99588.28;4938896;28;20047;-91
2022/04/04 07:25:04;;;;;;;5.22;3.30;;;;;;;4.67;68.00;99563.69;4939852;28;20032;-90
2022/04/04 07:27:30;;;;;;;4.28;3.22;;;;;;;4.79;68.23;99577.03;4924730;29;20065;-91
2022/04/04 07:29:58;;;;;;;5.68;3.75;;;;;;;4.75;68.74;99571.13;4924310;29;20376;-91
2022/04/04 07:32:24;;;;;;;5.00;3.28;;;;;;;4.78;67.99;99576.19;4924866;29;20421;-91
2022/04/04 07:34:49;;;;;;;4.68;3.50;;;;;;;4.75;67.87;99565.81;4926507;29;20036;-91
2022/04/04 07:37:14;;;;;;;4.70;3.20;;;;;;;4.83;68.11;99562.63;4924276;29;20078;-91
2022/04/04 07:39:40;;;;;;;5.47;3.25;;;;;;;4.93;68.65;99561.84;4924862;29;20042;-91
2022/04/04 07:42:06;;;;;;;4.82;3.55;;;;;;;4.89;68.28;99562.16;4939834;29;20491;-91
2022/04/04 07:44:31;;;;;;;6.78;3.40;;;;;;;4.87;68.02;99564.09;4925244;29;20036;-91
2022/04/04 07:46:57;;;;;;;4.97;3.53;;;;;;;4.86;67.88;99560.59;4940080;29;20114;-90
2022/04/04 07:49:23;;;;;;;4.90;3.60;;;;;;;4.85;68.06;99547.47;4924112;29;20069;-91
2022/04/04 07:51:52;;;;;;;4.55;3.40;;;;;;;4.87;68.51;99546.38;4924475;29;20027;-91
2022/04/04 07:54:17;;;;;;;4.35;3.38;;;;;;;4.93;68.87;99534.50;4925338;29;20130;-91
2022/04/04 07:56:43;;;;;;;4.00;3.35;;;;;;;4.98;68.39;99527.91;4923878;29;20333;-91
2022/04/04 07:59:09;;;;;;;3.75;3.38;;;;;;;5.09;68.76;99528.91;4924855;29;20028;-91
2022/04/04 08:01:35;;;;;;;4.43;3.50;;;;;;;5.07;68.17;99529.00;4925010;29;20035;-91
2022/04/04 08:04:00;;;;;;;5.20;3.33;;;;;;;5.08;67.83;99525.41;4941207;29;20031;-91
2022/04/04 08:06:26;;;;;;;4.85;3.10;;;;;;;5.08;68.39;99530.72;4925090;29;20057;-90
2022/04/04 08:08:51;;;;;;;5.72;3.63;;;;;;;5.16;68.07;99515.06;4925870;29;20040;-91
2022/04/04 08:11:17;;;;;;;5.38;3.55;;;;;;;5.15;68.27;99523.13;4941391;29;20077;-91
2022/04/04 08:13:44;;;;;;;5.07;3.47;;;;;;;5.13;67.70;99533.84;4941231;29;20062;-91
2022/04/04 08:16:10;;;;;;;4.85;3.78;;;;;;;5.16;67.38;99506.28;4938770;28;20122;-91
2022/04/04 08:18:35;;;;;;;5.35;3.45;;;;;;;5.15;66.96;99508.09;4919674;29;20036;-91
2022/04/04 08:21:00;;;;;;;6.03;3.60;;;;;;;5.20;66.88;99510.38;4924071;29;20039;-91
2022/04/04 08:23:29;;;;;;;5.13;3.83;;;;;;;5.21;66.83;99494.41;4939258;29;20040;-91
2022/04/04 08:25:57;;;;;;;4.78;3.65;;;;;;;5.21;66.86;99499.69;4924084;29;20150;-91
2022/04/04 08:28:23;;;;;;;5.45;4.20;;;;;;;5.23;66.52;99481.88;4924504;29;20032;-91
2022/04/04 08:30:50;;;;;;;5.32;3.22;;;;;;;5.24;66.60;99483.56;4939294;28;20053;-91
2022/04/04 08:33:15;;;;;;;6.25;3.40;;;;;;;5.31;66.92;99478.66;4940272;28;20066;-91
2022/04/04 08:35:41;;;;;;;5.18;3.40;;;;;;;5.30;66.93;99466.34;4939420;29;20043;-91
2022/04/04 08:38:06;;;;;;;6.25;4.07;;;;;;;5.29;66.33;99468.16;4938013;29;20043;-91
2022/04/04 08:40:32;;;;;;;4.53;3.65;;;;;;;5.33;66.58;99460.81;4923580;29;20039;-90
2022/04/04 08:42:57;;;;;;;6.07;3.60;;;;;;;5.36;66.87;99450.81;4921427;29;20433;-90
2022/04/04 08:45:23;;;;;;;5.20;3.60;;;;;;;5.37;66.76;99454.31;4922217;29;20039;-91
2022/04/04 08:47:48;;;;;;;6.25;5.53;;;;;;;5.38;66.72;99454.19;4921245;29;20043;-91
2022/04/04 08:50:14;;;;;;;5.88;4.90;;;;;;;5.43;66.38;99440.59;4924038;29;20460;-91
2022/04/04 08:52:40;;;;;;;5.25;4.00;;;;;;;5.41;66.24;99450.47;4924345;29;20035;-91
2022/04/04 08:55:08;;;;;;;6.18;3.70;;;;;;;5.47;66.46;99451.81;4939441;29;20481;-91
2022/04/04 08:57:33;;;;;;;4.45;3.58;;;;;;;5.53;66.53;99435.41;4940037;28;20299;-91
2022/04/04 08:59:58;;;;;;;4.70;3.30;;;;;;;5.46;66.05;99435.03;4938171;29;20039;-91
2022/04/04 09:02:24;;;;;;;3.95;3.55;;;;;;;5.50;66.79;99427.69;4938351;29;20038;-91
2022/04/04 09:04:52;;;;;;;5.57;3.53;;;;;;;5.53;67.18;99415.03;4923922;29;20396;-90
2022/04/04 09:07:19;;;;;;;4.35;3.50;;;;;;;5.57;66.65;99436.84;4924184;29;20480;-91
2022/04/04 09:09:48;;;;;;;4.80;3.60;;;;;;;5.60;66.81;99407.44;4922571;29;20035;-91
2022/04/04 09:12:21;;;;;;;5.40;3.22;;;;;;;5.67;66.84;99406.84;4939698;28;20441;-91
2022/04/04 09:14:51;;;;;;;5.03;3.72;;;;;;;5.74;66.50;99390.47;4924180;29;20032;-91
2022/04/04 09:17:19;;;;;;;5.20;3.70;;;;;;;5.78;66.40;99399.88;4908304;29;20142;-91
2022/04/04 09:19:45;;;;;;;6.30;4.15;;;;;;;5.81;66.44;99384.56;4938765;29;20464;-90
2022/04/04 09:22:12;;;;;;;5.30;4.03;;;;;;;5.83;66.58;99390.59;4926009;29;20035;-90
2022/04/04 09:25:03;;;;;;;4.70;3.80;;;;;;;5.87;66.35;99385.88;4927651;28;20033;-90
2022/04/04 09:27:33;;;;;;;6.85;4.60;;;;;;;5.87;66.75;99370.81;4927369;29;20035;-91
2022/04/04 09:30:00;;;;;;;5.95;3.90;;;;;;;5.90;66.51;99372.41;4941928;28;20035;-90
2022/04/04 09:32:43;;;;;;;6.22;4.20;;;;;;;5.92;67.55;99368.66;4959283;28;20189;-90
2022/04/04 09:35:12;;;;;;;5.10;3.78;;;;;;;5.95;67.10;99365.75;4958389;28;20047;-90
2022/04/04 09:37:39;;;;;;;6.57;4.88;;;;;;;5.96;67.30;99345.38;4927090;29;20464;-90
2022/04/04 09:40:24;;;;;;;8.43;4.43;;;;;;;5.97;67.64;99371.78;4925948;29;20046;-90
2022/04/04 09:42:50;;;;;;;5.30;4.18;;;;;;;6.03;66.81;99346.56;4927188;29;20055;-90
2022/04/04 09:45:16;;;;;;;6.13;4.22;;;;;;;6.03;66.91;99369.59;4943500;29;20066;-90
2022/04/04 09:47:44;;;;;;;5.72;4.25;;;;;;;6.06;67.12;99364.03;4926661;29;20550;-90
2022/04/04 09:50:09;;;;;;;6.88;4.32;;;;;;;6.08;66.03;99362.94;4958197;28;20036;-90
2022/04/04 09:52:50;;;;;;;5.15;4.40;;;;;;;6.08;66.80;99349.69;4927329;29;20035;-91
2022/04/04 09:55:27;;;;;;;6.40;4.50;;;;;;;6.11;66.92;99353.88;4926241;29;20709;-90
2022/04/04 09:57:54;;;;;;;4.38;3.85;;;;;;;6.11;65.59;99360.03;4942828;28;20109;-90
2022/04/04 10:00:20;;;;;;;6.95;4.57;;;;;;;6.12;65.83;99327.22;4926592;29;20063;-90
2022/04/04 10:02:46;;;;;;;6.28;4.72;;;;;;;6.15;66.54;99331.44;4925839;29;20040;-90
2022/04/04 10:05:11;;;;;;;5.93;4.25;;;;;;;6.15;66.29;99319.03;4942477;29;20031;-90
2022/04/04 10:07:37;;;;;;;6.35;4.43;;;;;;;6.14;66.11;99327.09;4926237;29;20032;-91
2022/04/04 10:10:05;;;;;;;6.07;4.40;;;;;;;6.15;66.09;99336.75;4958470;28;20332;-90
2022/04/04 10:12:34;;;;;;;6.30;4.93;;;;;;;6.14;65.97;99327.94;4926830;29;20042;-90
2022/04/04 10:15:00;;;;;;;6.38;4.47;;;;;;;6.14;66.06;99300.56;4959825;28;20473;-91
2022/04/04 10:17:26;;;;;;;6.15;4.53;;;;;;;6.16;66.87;99299.50;4924484;29;20118;-91
2022/04/04 10:19:51;;;;;;;5.60;4.53;;;;;;;6.18;66.64;99302.84;4939998;29;20491;-90
2022/04/04 10:22:19;;;;;;;5.53;4.32;;;;;;;6.18;66.40;99313.47;4925174;29;20114;-90
2022/04/04 10:24:44;;;;;;;5.97;4.15;;;;;;;6.19;66.60;99306.34;4956951;28;20032;-90
2022/04/04 10:27:12;;;;;;;5.85;4.53;;;;;;;6.22;66.99;99296.31;4925443;29;20027;-90
2022/04/04 10:29:39;;;;;;;5.13;4.30;;;;;;;6.24;65.82;99301.50;4926936;29;20031;-91
2022/04/04 10:32:05;;;;;;;7.70;4.40;;;;;;;6.27;65.49;99359.66;4924412;29;20032;-90
2022/04/04 10:34:40;;;;;;;5.80;4.38;;;;;;;6.26;65.49;99294.25;4957423;28;21049;-90
2022/04/04 10:37:09;;;;;;;7.32;4.50;;;;;;;6.27;65.45;99317.19;4942298;29;20040;-91
2022/04/04 10:39:48;;;;;;;5.03;4.15;;;;;;;6.28;66.10;99305.59;4941142;29;20031;-91
2022/04/04 10:42:33;;;;;;;4.90;4.38;;;;;;;6.26;65.54;99286.28;4941866;29;20039;-90
2022/04/04 10:45:03;;;;;;;7.65;4.65;;;;;;;6.25;66.23;99289.91;4942723;29;20118;-90
2022/04/04 10:47:30;;;;;;;6.15;4.82;;;;;;;6.24;66.26;99301.50;4924867;29;20384;-91
2022/04/04 10:50:17;;;;;;;7.10;4.20;;;;;;;6.23;65.75;99295.34;4940995;29;20523;-90
2022/04/04 10:52:43;;;;;;;5.35;4.32;;;;;;;6.22;66.27;99314.91;4956825;28;20459;-91
2022/04/04 10:55:34;;;;;;;9.15;7.93;;;;;;;6.20;66.47;99300.91;4938896;29;20039;-90
2022/04/04 10:58:02;;;;;;;10.00;6.90;;;;;;;6.19;66.76;99285.97;4941546;29;20032;-90
2022/04/04 11:00:32;;;;;;;6.65;5.50;;;;;;;6.18;66.73;99286.09;4939687;29;20063;-91
2022/04/04 11:02:59;;;;;;;6.53;5.05;;;;;;;6.21;67.52;99292.00;4941216;29;20031;-90
2022/04/04 11:08:08;;;;;;;5.18;4.68;;;;;;;6.26;67.66;99283.63;4940342;29;20050;-90
2022/04/04 11:10:40;;;;;;;7.93;5.28;;;;;;;6.29;68.00;99278.91;4925349;29;20432;-90
2022/04/04 11:13:09;;;;;;;6.40;5.07;;;;;;;6.30;69.31;99269.97;4941021;29;20055;-90
2022/04/04 11:15:48;;;;;;;5.25;4.75;;;;;;;6.30;69.76;99261.16;4926275;29;20412;-90
2022/04/04 11:18:14;;;;;;;6.85;4.60;;;;;;;6.31;70.32;99270.81;4942281;28;20054;-90
2022/04/04 11:21:00;;;;;;;6.10;4.68;;;;;;;6.30;70.18;99258.53;4955907;28;20118;-90
2022/04/04 11:23:27;;;;;;;5.95;4.47;;;;;;;6.28;69.68;99266.59;4957643;28;20035;-90
2022/04/04 11:25:53;;;;;;;5.88;5.05;;;;;;;6.25;70.08;99261.56;4915816;29;20032;-90
2022/04/04 11:28:22;;;;;;;7.75;4.70;;;;;;;6.29;70.96;99257.69;4924991;29;20082;-90
2022/04/04 11:30:54;;;;;;;5.88;4.68;;;;;;;6.31;71.08;99244.28;4925943;29;20035;-90
2022/04/04 11:33:23;;;;;;;7.95;4.68;;;;;;;6.29;71.84;99246.22;4920592;29;20039;-90
2022/04/04 11:35:50;;;;;;;6.13;5.05;;;;;;;6.26;71.66;99257.09;4922783;29;20457;-90
2022/04/04 11:38:19;;;;;;;5.57;4.97;;;;;;;6.22;74.05;99251.19;4940243;29;20044;-90
2022/04/04 11:40:52;;;;;;;6.30;4.85;;;;;;;6.21;75.58;99259.28;4922549;29;20031;-90
2022/04/04 11:43:19;;;;;;;7.00;5.50;;;;;;;6.21;75.80;99256.63;4924940;29;20028;-90
2022/04/04 11:45:46;;;;;;;7.20;5.50;;;;;;;6.15;75.18;99263.28;4938558;28;20067;-91